»·PEaware :: DFGCW KFOT-KRDD

DFGCW :: KFOT-KRDD

FLIGHT INFORMATION

Flight Status: Arrived
Operator: Unknown
More flights by this operator :: More flights under this callsign
Pilot: Klaus A. (15485)
Aircraft: PILATUS PC-12 EAGLE
(PC12)
More flights by this aircraft type
Origin: KFOT Rohnerville
United States
Destination: KRDD Redding Mun
United States
More flights between these airports :: More routes between these airports
Route: +FOT V195 RBL
File this flight plan on PilotEdge
Remarks: / G Custom weather
Altitude:
(Current/Filed)
13,000ft
Speed:
(Current/Filed)
230kts
Departed: 30-Jun-18 08:54 AM
Arrived: 30-Jun-18 09:33 AM
Distance/Time
Traveled:
84nm/0:39
Distance/Time
To Go:
Arrived

Flight Plot

Page will automatically refresh every two minutes.

Flight plan parsing failed; only flown route is shown


Map Options




Map Legend


Flown Route
Filed Route
Departure Airport
Arrival Airport
Navaid (VOR, NDB)
Fix

Horizontal Profiles

Position Reports

Time Latitude Longitude Heading Altitude Ground
Speed
30-Jun-18 08:41 40.555617 -124.132539 219 398ft 0kts
30-Jun-18 08:42 40.555617 -124.132539 219 398ft 0kts
30-Jun-18 08:43 40.555617 -124.132539 219 398ft 0kts
30-Jun-18 08:44 40.555617 -124.132539 219 398ft 0kts
30-Jun-18 08:45 40.555617 -124.132539 219 398ft 0kts
30-Jun-18 08:46 40.555617 -124.132539 219 398ft 0kts
30-Jun-18 08:47 40.555617 -124.132539 219 398ft 0kts
30-Jun-18 08:48 40.555617 -124.132539 219 398ft 0kts
30-Jun-18 08:49 40.555617 -124.133037 0 397ft 5kts
30-Jun-18 08:50 40.554557 -124.132185 299 397ft 6kts
30-Jun-18 08:51 40.557271 -124.136857 309 398ft 22kts
30-Jun-18 08:51 40.557527 -124.137943 216 397ft 0kts
30-Jun-18 08:52 40.557527 -124.137943 216 397ft 0kts
30-Jun-18 08:53 40.557446 -124.138025 217 398ft 4kts
30-Jun-18 08:54 40.546297 -124.119390 126 974ft 134kts
30-Jun-18 08:55 40.514822 -124.124137 271 2879ft 170kts
30-Jun-18 08:56 40.549723 -124.129183 8 5092ft 159kts
30-Jun-18 08:57 40.589712 -124.159223 332 7002ft 177kts
30-Jun-18 08:58 40.627925 -124.194616 335 9087ft 168kts
30-Jun-18 08:59 40.668318 -124.222895 18 10646ft 172kts
30-Jun-18 09:00 40.653809 -124.162343 118 12081ft 228kts
30-Jun-18 09:01 40.626696 -124.086880 102 13013ft 245kts
30-Jun-18 09:02 40.602652 -123.997136 102 13005ft 271kts
30-Jun-18 09:03 40.577751 -123.902042 102 13002ft 277kts
30-Jun-18 09:04 40.552219 -123.806087 103 13002ft 279kts
30-Jun-18 09:05 40.525336 -123.710192 104 13004ft 279kts
30-Jun-18 09:06 40.498704 -123.615809 104 13105ft 277kts
30-Jun-18 09:07 40.471951 -123.521178 104 13104ft 276kts
30-Jun-18 09:08 40.445251 -123.427070 104 13133ft 274kts
30-Jun-18 09:09 40.419238 -123.335699 104 13150ft 275kts
30-Jun-18 09:10 40.392152 -123.240902 105 13001ft 277kts
30-Jun-18 09:11 40.365246 -123.147095 105 13001ft 274kts
30-Jun-18 09:12 40.338296 -123.053483 105 13001ft 273kts
30-Jun-18 09:13 40.311409 -122.960406 105 13001ft 273kts
30-Jun-18 09:14 40.284441 -122.867382 105 13001ft 273kts
30-Jun-18 09:15 40.257222 -122.773828 105 12842ft 277kts
30-Jun-18 09:16 40.229865 -122.680149 106 12837ft 275kts
30-Jun-18 09:17 40.202710 -122.587520 106 12837ft 274kts
30-Jun-18 09:18 40.175224 -122.494077 106 12837ft 274kts
30-Jun-18 09:19 40.148757 -122.404480 105 11891ft 249kts
30-Jun-18 09:20 40.125143 -122.324717 105 10557ft 231kts
30-Jun-18 09:21 40.107125 -122.247836 66 9138ft 209kts
30-Jun-18 09:22 40.154157 -122.254165 338 8010ft 194kts
30-Jun-18 09:23 40.202398 -122.283183 341 6806ft 196kts
30-Jun-18 09:24 40.251875 -122.313797 345 5326ft 198kts
30-Jun-18 09:25 40.295122 -122.274837 34 3832ft 195kts
30-Jun-18 09:26 40.343159 -122.291727 351 2993ft 166kts
30-Jun-18 09:27 40.382044 -122.295048 1 2856ft 110kts
30-Jun-18 09:28 40.407506 -122.295000 0 2334ft 93kts
30-Jun-18 09:29 40.434806 -122.294950 0 1800ft 98kts
30-Jun-18 09:30 40.460470 -122.294955 359 1305ft 90kts
30-Jun-18 09:31 40.485317 -122.294901 359 840ft 85kts
30-Jun-18 09:32 40.507053 -122.294877 359 523ft 62kts
30-Jun-18 09:33 40.514242 -122.295794 257 510ft 0kts
30-Jun-18 09:34 40.510812 -122.296255 182 509ft 26kts
30-Jun-18 09:35 40.507696 -122.298844 321 510ft 9kts
30-Jun-18 09:36 40.507852 -122.298927 349 510ft 0kts
30-Jun-18 09:37 40.507851 -122.298927 349 510ft 0kts
30-Jun-18 09:38 40.507851 -122.298927 349 510ft 0kts
30-Jun-18 09:39 40.507852 -122.298927 349 510ft 0kts

Navigation Log

Ident Type
Flight plan parsing failed, navigation log unavailable